createdAt,value
2016-09-29T03:00:20.102Z,22.5
2016-09-29T03:00:45.685Z,22.6
2016-09-29T03:01:11.255Z,22.52
2016-09-29T03:01:36.804Z,22.59
2016-09-29T03:02:02.797Z,22.54
2016-09-29T03:03:19.090Z,22.54
2016-09-29T03:05:28.016Z,22.67
2016-09-29T03:05:53.600Z,22.65
2016-09-29T03:06:19.158Z,22.68
2016-09-29T03:06:44.810Z,22.67
2016-09-29T03:07:10.511Z,22.68
2016-09-29T03:07:36.093Z,22.67
2016-09-29T03:08:01.647Z,22.62
2016-09-29T03:08:27.198Z,22.59
2016-09-29T03:08:52.870Z,22.64
2016-09-29T03:09:18.472Z,22.62
2016-09-29T03:09:43.951Z,22.65
2016-09-29T03:10:09.515Z,22.69
2016-09-29T03:10:35.047Z,22.6
2016-09-29T03:11:00.631Z,22.64
2016-09-29T03:12:03.832Z,22.57
2016-09-29T03:12:29.406Z,22.64
2016-09-29T03:12:55.078Z,22.54
2016-09-29T03:13:48.055Z,22.56
2016-09-29T03:14:13.647Z,22.57
2016-09-29T03:14:39.215Z,22.57
2016-09-29T03:15:04.825Z,22.62
2016-09-29T03:16:02.908Z,22.62
2016-09-29T03:16:28.472Z,22.67
2016-09-29T03:16:54.024Z,22.59
2016-09-29T03:17:19.624Z,22.53
2016-09-29T03:17:45.177Z,22.69
2016-09-29T03:18:48.405Z,22.59
2016-09-29T03:19:14.111Z,22.67
2016-09-29T03:19:39.766Z,22.59
2016-09-29T03:20:05.325Z,22.57
2016-09-29T03:20:30.877Z,22.6
2016-09-29T03:20:56.481Z,22.6
2016-09-29T03:21:22.029Z,22.54
2016-09-29T03:21:47.635Z,22.6
2016-09-29T03:22:13.309Z,22.6
2016-09-29T03:22:38.873Z,22.64
2016-09-29T03:23:04.451Z,22.62
2016-09-29T03:23:30.101Z,22.54
2016-09-29T03:23:55.738Z,22.62
2016-09-29T03:24:21.290Z,22.57
2016-09-29T03:24:46.904Z,22.59
2016-09-29T03:25:12.454Z,22.59
2016-09-29T03:25:38.113Z,22.57
2016-09-29T03:26:03.814Z,22.56
2016-09-29T03:26:29.374Z,22.68
2016-09-29T03:26:55.024Z,22.65
2016-09-29T03:27:20.595Z,22.64
2016-09-29T03:27:46.115Z,22.68
2016-09-29T03:28:11.670Z,22.65
2016-09-29T03:28:37.229Z,22.6
2016-09-29T03:29:02.804Z,22.56
2016-09-29T03:29:28.386Z,22.65
2016-09-29T03:29:54.067Z,22.62
2016-09-29T03:30:19.814Z,22.59
2016-09-29T03:30:45.375Z,22.54
2016-09-29T03:31:10.974Z,22.62
2016-09-29T03:31:36.523Z,22.67
2016-09-29T03:32:02.152Z,22.6
2016-09-29T03:32:27.722Z,22.59
2016-09-29T03:32:53.358Z,22.59
2016-09-29T03:33:19.018Z,22.62
2016-09-29T03:33:44.573Z,22.62
2016-09-29T03:34:10.143Z,22.6
2016-09-29T03:34:35.754Z,22.57
2016-09-29T03:35:01.342Z,22.64
2016-09-29T03:35:26.930Z,22.6
2016-09-29T03:35:52.495Z,22.62
2016-09-29T03:36:18.129Z,22.54
2016-09-29T03:36:43.690Z,22.6
2016-09-29T03:37:09.264Z,22.62
2016-09-29T03:37:34.821Z,22.6
2016-09-29T03:38:00.499Z,22.56
2016-09-29T03:38:26.076Z,22.6
2016-09-29T03:38:51.635Z,22.6
2016-09-29T03:39:17.179Z,22.62
2016-09-29T03:39:42.761Z,22.57
2016-09-29T03:40:08.335Z,22.64
2016-09-29T03:40:33.899Z,22.67
2016-09-29T03:40:59.480Z,22.53
2016-09-29T03:41:25.048Z,22.62
2016-09-29T03:41:50.621Z,22.6
2016-09-29T03:42:16.303Z,22.6
2016-09-29T03:42:41.860Z,22.62
2016-09-29T03:43:07.450Z,22.65
2016-09-29T03:43:33.125Z,22.65
2016-09-29T03:43:58.695Z,22.56
2016-09-29T03:44:24.334Z,22.57
2016-09-29T03:44:49.919Z,22.53
2016-09-29T03:45:15.515Z,22.57
2016-09-29T03:45:41.089Z,22.56
2016-09-29T03:46:06.650Z,22.56
2016-09-29T03:46:32.212Z,22.6
2016-09-29T03:46:57.781Z,22.64
2016-09-29T03:47:23.346Z,22.57
2016-09-29T03:47:48.912Z,22.65
2016-09-29T03:48:14.548Z,22.59
2016-09-29T03:48:40.159Z,22.59
2016-09-29T03:49:05.733Z,22.59
2016-09-29T03:49:31.329Z,22.67
2016-09-29T03:49:56.909Z,22.56
2016-09-29T03:50:22.485Z,22.65
2016-09-29T03:50:48.152Z,22.62
2016-09-29T03:51:13.649Z,22.57
2016-09-29T03:51:39.288Z,22.65
2016-09-29T03:52:04.861Z,22.53
2016-09-29T03:52:30.501Z,22.6
2016-09-29T03:52:56.140Z,22.57
2016-09-29T03:53:21.643Z,22.56
2016-09-29T03:53:47.337Z,22.67
2016-09-29T03:54:12.894Z,22.68
2016-09-29T03:54:38.459Z,22.59
2016-09-29T03:55:04.005Z,22.56
2016-09-29T03:55:29.713Z,22.52
2016-09-29T03:55:55.380Z,22.57
2016-09-29T03:56:20.945Z,22.64
2016-09-29T03:56:46.514Z,22.65
2016-09-29T03:57:12.085Z,22.69
2016-09-29T03:57:37.687Z,22.64
2016-09-29T03:58:03.424Z,22.64
2016-09-29T03:59:01.525Z,22.62
2016-09-29T03:59:27.183Z,22.6
2016-09-29T03:59:52.747Z,22.59
2016-09-29T04:00:18.314Z,22.57
2016-09-29T04:00:44.016Z,22.52
2016-09-29T04:01:09.651Z,22.64
2016-09-29T04:01:35.318Z,22.53
2016-09-29T04:02:00.797Z,22.57
2016-09-29T04:02:26.436Z,22.64
2016-09-29T04:02:52.000Z,22.62
2016-09-29T04:03:17.584Z,22.69
2016-09-29T04:03:43.153Z,22.62
2016-09-29T04:04:08.723Z,22.6
2016-09-29T04:04:34.338Z,22.64
2016-09-29T04:04:59.907Z,22.64
2016-09-29T04:05:25.525Z,22.53
2016-09-29T04:05:51.075Z,22.6
2016-09-29T04:06:16.766Z,22.67
2016-09-29T04:06:42.410Z,22.52
2016-09-29T04:07:07.982Z,22.64
2016-09-29T04:07:33.647Z,22.57
2016-09-29T04:07:59.220Z,22.67
2016-09-29T04:08:25.093Z,22.64
2016-09-29T04:08:50.660Z,22.62
2016-09-29T04:09:16.235Z,22.54
2016-09-29T04:09:41.797Z,22.56
2016-09-29T04:10:07.422Z,22.64
2016-09-29T04:10:32.984Z,22.5
2016-09-29T04:10:58.543Z,22.59
2016-09-29T04:11:24.115Z,22.52
2016-09-29T04:11:49.737Z,22.53
2016-09-29T04:12:15.286Z,22.52
2016-09-29T04:13:03.196Z,22.59
2016-09-29T04:13:28.844Z,22.49
2016-09-29T04:13:54.399Z,22.52
2016-09-29T04:14:19.990Z,22.52
2016-09-29T04:14:45.562Z,22.54
2016-09-29T04:15:11.114Z,22.46
2016-09-29T04:15:36.675Z,22.47
2016-09-29T04:16:02.255Z,22.53
2016-09-29T04:16:27.853Z,22.49
2016-09-29T04:16:53.397Z,22.5
2016-09-29T04:18:01.703Z,22.44
2016-09-29T04:18:27.291Z,22.46
2016-09-29T04:18:52.863Z,22.5
2016-09-29T04:19:18.433Z,22.49
2016-09-29T04:19:44.050Z,22.38
2016-09-29T04:20:09.593Z,22.41
2016-09-29T04:20:35.154Z,22.43
2016-09-29T04:21:00.680Z,22.41
2016-09-29T04:21:26.224Z,22.43
2016-09-29T04:21:51.900Z,22.41
2016-09-29T04:22:17.506Z,22.49
2016-09-29T04:22:43.064Z,22.39
2016-09-29T04:23:08.750Z,22.44
2016-09-29T04:23:34.298Z,22.43
2016-09-29T04:23:59.841Z,22.46
2016-09-29T04:24:25.404Z,22.5
2016-09-29T04:24:50.993Z,22.52
2016-09-29T04:25:16.551Z,22.43
2016-09-29T04:25:42.105Z,22.47
2016-09-29T04:26:07.684Z,22.47
2016-09-29T04:26:33.246Z,22.43
2016-09-29T04:26:58.809Z,22.44
2016-09-29T04:27:24.453Z,22.5
2016-09-29T04:27:50.036Z,22.46
2016-09-29T04:28:15.582Z,22.47
2016-09-29T04:28:41.167Z,22.47
2016-09-29T04:29:06.752Z,22.44
2016-09-29T04:29:32.325Z,22.49
2016-09-29T04:29:57.914Z,22.47
2016-09-29T04:30:23.472Z,22.43
2016-09-29T04:30:49.136Z,22.5
2016-09-29T04:31:14.693Z,22.5
2016-09-29T04:31:40.247Z,22.44
2016-09-29T04:32:05.785Z,22.52
2016-09-29T04:32:31.331Z,22.5
2016-09-29T04:32:56.910Z,22.52
2016-09-29T04:33:22.460Z,22.46
2016-09-29T04:33:47.996Z,22.49
2016-09-29T04:34:13.545Z,22.54
2016-09-29T04:34:39.199Z,22.56
2016-09-29T04:35:04.759Z,22.53
2016-09-29T04:35:30.329Z,22.54
2016-09-29T04:35:55.976Z,22.57
2016-09-29T04:36:21.517Z,22.59
2016-09-29T04:36:47.070Z,22.53
2016-09-29T04:37:12.606Z,22.53
2016-09-29T04:37:38.189Z,22.57
2016-09-29T04:38:03.740Z,22.54
2016-09-29T04:38:29.362Z,22.62
2016-09-29T04:38:54.904Z,22.6
2016-09-29T04:39:20.475Z,22.53
2016-09-29T04:39:46.052Z,22.57
2016-09-29T04:40:11.589Z,22.62
2016-09-29T04:40:37.185Z,22.54
2016-09-29T04:41:02.720Z,22.56
2016-09-29T04:41:28.263Z,22.59
2016-09-29T04:41:53.828Z,22.6
2016-09-29T04:42:19.975Z,22.57
2016-09-29T04:42:45.531Z,22.56
2016-09-29T04:43:11.085Z,22.64
2016-09-29T04:43:36.643Z,22.54
2016-09-29T04:44:02.241Z,22.64
2016-09-29T04:44:27.790Z,22.62
2016-09-29T04:44:53.350Z,22.59
2016-09-29T04:45:19.017Z,22.56
2016-09-29T04:45:44.555Z,22.64
2016-09-29T04:46:10.217Z,22.53
2016-09-29T04:46:35.767Z,22.62
2016-09-29T04:47:01.325Z,22.64
2016-09-29T04:47:26.868Z,22.64
2016-09-29T04:47:52.409Z,22.54
2016-09-29T04:48:18.030Z,22.62
2016-09-29T04:48:43.586Z,22.65
2016-09-29T04:49:09.225Z,22.57
2016-09-29T04:49:34.778Z,22.62
2016-09-29T04:50:00.335Z,22.6
2016-09-29T04:50:25.956Z,22.64
2016-09-29T04:50:51.552Z,22.54
2016-09-29T04:51:17.120Z,22.56
2016-09-29T04:51:42.707Z,22.56
2016-09-29T04:52:08.330Z,22.57
2016-09-29T04:52:33.905Z,22.65
2016-09-29T04:52:59.484Z,22.6
2016-09-29T04:53:25.151Z,22.64
2016-09-29T04:53:50.754Z,22.64
2016-09-29T04:54:16.361Z,22.6
2016-09-29T04:54:41.919Z,22.62
2016-09-29T04:55:07.544Z,22.62
2016-09-29T04:55:33.151Z,22.65
2016-09-29T04:55:58.735Z,22.64
2016-09-29T04:56:24.420Z,22.6
2016-09-29T04:56:49.994Z,22.59
2016-09-29T04:57:15.564Z,22.52
2016-09-29T04:57:41.192Z,22.59
2016-09-29T04:58:06.807Z,22.59
2016-09-29T04:58:32.369Z,22.6
2016-09-29T04:58:57.990Z,22.6
2016-09-29T04:59:23.526Z,22.59
2016-09-29T04:59:49.151Z,22.6
2016-09-29T05:00:14.745Z,22.67
2016-09-29T05:00:40.312Z,22.67
2016-09-29T05:01:05.858Z,22.64
2016-09-29T05:01:31.426Z,22.59
2016-09-29T05:01:56.967Z,22.53
2016-09-29T05:02:22.563Z,22.64
2016-09-29T05:02:48.143Z,22.64
2016-09-29T05:03:13.743Z,22.54
2016-09-29T05:03:39.364Z,22.62
2016-09-29T05:04:04.917Z,22.65
2016-09-29T05:04:30.526Z,22.6
2016-09-29T05:04:56.098Z,22.57
2016-09-29T05:05:21.704Z,22.6
2016-09-29T05:05:47.311Z,22.64
2016-09-29T05:06:12.895Z,22.54
2016-09-29T05:06:38.622Z,22.57
2016-09-29T05:07:04.175Z,22.65
2016-09-29T05:07:29.808Z,22.62
2016-09-29T05:07:55.424Z,22.57
2016-09-29T05:08:20.999Z,22.6
2016-09-29T05:08:46.779Z,22.67
2016-09-29T05:09:12.521Z,22.65
2016-09-29T05:10:05.544Z,22.54
2016-09-29T05:10:31.119Z,22.56
2016-09-29T05:10:56.773Z,22.59
2016-09-29T05:11:22.366Z,22.65
2016-09-29T05:11:47.981Z,22.64
2016-09-29T05:12:13.641Z,22.65
2016-09-29T05:12:39.212Z,22.65
2016-09-29T05:13:04.861Z,22.56
2016-09-29T05:13:30.428Z,22.6
2016-09-29T05:13:56.004Z,22.57
2016-09-29T05:14:21.663Z,22.6
2016-09-29T05:14:47.288Z,22.62
2016-09-29T05:15:12.964Z,22.69
2016-09-29T05:15:38.543Z,22.62
2016-09-29T05:16:04.106Z,22.62
2016-09-29T05:16:29.741Z,22.62
2016-09-29T05:16:55.315Z,22.64
2016-09-29T05:17:20.939Z,22.62
2016-09-29T05:17:46.601Z,22.59
2016-09-29T05:18:12.171Z,22.59
2016-09-29T05:18:37.771Z,22.67
2016-09-29T05:19:03.337Z,22.62
2016-09-29T05:20:01.571Z,22.54
2016-09-29T05:20:49.403Z,22.64
2016-09-29T05:21:15.758Z,22.59
2016-09-29T05:22:03.691Z,22.65
2016-09-29T05:22:29.241Z,22.64
2016-09-29T05:22:54.911Z,22.52
2016-09-29T05:23:20.555Z,22.65
2016-09-29T05:23:46.068Z,22.62
2016-09-29T05:24:11.644Z,22.62
2016-09-29T05:24:37.203Z,22.59
2016-09-29T05:25:25.254Z,22.54
2016-09-29T05:25:50.899Z,22.62
2016-09-29T05:26:16.462Z,22.46
2016-09-29T05:26:42.016Z,22.53
2016-09-29T05:27:07.663Z,22.6
2016-09-29T05:27:33.304Z,22.53
2016-09-29T05:27:58.990Z,22.6
2016-09-29T05:28:24.557Z,22.62
2016-09-29T05:28:50.129Z,22.6
2016-09-29T05:29:15.782Z,22.62
2016-09-29T05:29:41.380Z,22.57
2016-09-29T05:30:06.927Z,22.64
2016-09-29T05:30:32.468Z,22.57
2016-09-29T05:30:58.001Z,22.53
2016-09-29T05:31:23.548Z,22.59
2016-09-29T05:31:49.113Z,22.6
2016-09-29T05:32:14.731Z,22.57
2016-09-29T05:32:40.311Z,22.56
2016-09-29T05:33:05.871Z,22.62
2016-09-29T05:34:03.988Z,22.62
2016-09-29T05:34:29.546Z,22.59
2016-09-29T05:34:55.201Z,22.56
2016-09-29T05:35:20.772Z,22.59
2016-09-29T05:35:46.317Z,22.53
2016-09-29T05:36:11.846Z,22.57
2016-09-29T05:36:37.390Z,22.54
2016-09-29T05:37:02.995Z,22.59
2016-09-29T05:37:28.542Z,22.5
2016-09-29T05:37:54.091Z,22.53
2016-09-29T05:38:19.636Z,22.54
2016-09-29T05:38:45.265Z,22.57
2016-09-29T05:39:10.818Z,22.54
2016-09-29T05:39:36.383Z,22.52
2016-09-29T05:40:02.103Z,22.59
2016-09-29T05:40:27.691Z,22.6
2016-09-29T05:40:53.353Z,22.56
2016-09-29T05:41:56.573Z,22.57
2016-09-29T05:42:22.137Z,22.54
2016-09-29T05:42:47.702Z,22.57
2016-09-29T05:43:13.265Z,22.53
2016-09-29T05:44:06.234Z,22.59
2016-09-29T05:44:31.789Z,22.59
2016-09-29T05:44:57.418Z,22.53
2016-09-29T05:45:22.984Z,22.59
2016-09-29T05:45:48.547Z,22.62
2016-09-29T05:46:14.114Z,22.56
2016-09-29T05:46:39.674Z,22.54
2016-09-29T05:47:05.249Z,22.56
2016-09-29T05:47:30.966Z,22.56
2016-09-29T05:47:56.539Z,22.56
2016-09-29T05:48:44.406Z,22.62
2016-09-29T05:49:09.982Z,22.57
2016-09-29T05:49:35.537Z,22.57
2016-09-29T05:50:01.190Z,22.62
2016-09-29T05:50:26.742Z,22.59
2016-09-29T05:50:52.310Z,22.57
2016-09-29T05:51:17.994Z,22.62
2016-09-29T05:51:43.579Z,22.57
2016-09-29T05:52:09.255Z,22.56
2016-09-29T05:52:34.819Z,22.59
2016-09-29T05:53:00.398Z,22.6
2016-09-29T05:53:26.062Z,22.62
2016-09-29T05:53:51.641Z,22.62
2016-09-29T05:54:17.274Z,22.6
2016-09-29T05:54:42.839Z,22.62
2016-09-29T05:55:08.409Z,22.56
2016-09-29T05:55:33.969Z,22.59
2016-09-29T05:55:59.643Z,22.56
2016-09-29T05:56:25.183Z,22.52
2016-09-29T05:56:50.747Z,22.57
2016-09-29T05:57:16.695Z,22.57
2016-09-29T05:57:42.332Z,22.54
2016-09-29T05:58:07.891Z,22.59
2016-09-29T05:58:33.450Z,22.54
2016-09-29T05:58:59.099Z,22.62
2016-09-29T05:59:24.661Z,22.57
2016-09-29T05:59:50.276Z,22.57
2016-09-29T06:00:58.603Z,22.59
2016-09-29T06:01:24.148Z,22.54
2016-09-29T06:01:49.722Z,22.59
2016-09-29T06:02:15.290Z,22.62
2016-09-29T06:02:40.885Z,22.62
2016-09-29T06:03:06.503Z,22.62
2016-09-29T06:03:32.064Z,22.57
2016-09-29T06:03:57.708Z,22.59
2016-09-29T06:04:23.270Z,22.54
2016-09-29T06:04:48.833Z,22.52
2016-09-29T06:05:14.393Z,22.57
2016-09-29T06:06:22.709Z,22.65
2016-09-29T06:06:48.291Z,22.62
2016-09-29T06:07:13.854Z,22.65
2016-09-29T06:07:39.444Z,22.53
2016-09-29T06:08:04.998Z,22.62
2016-09-29T06:08:30.568Z,22.59
2016-09-29T06:08:56.192Z,22.54
2016-09-29T06:09:21.760Z,22.62
2016-09-29T06:09:47.299Z,22.62
2016-09-29T06:10:12.857Z,22.52
2016-09-29T06:10:38.410Z,22.59
2016-09-29T06:11:03.940Z,22.62
2016-09-29T06:11:29.514Z,22.62
2016-09-29T06:11:55.072Z,22.62
2016-09-29T06:12:20.624Z,22.46
2016-09-29T06:12:46.172Z,22.53
2016-09-29T06:13:11.744Z,22.64
2016-09-29T06:13:37.310Z,22.6
2016-09-29T06:14:02.865Z,22.62
2016-09-29T06:14:28.450Z,22.59
2016-09-29T06:14:54.020Z,22.62
2016-09-29T06:15:19.581Z,22.6
2016-09-29T06:15:45.151Z,22.57
2016-09-29T06:16:10.702Z,22.62
2016-09-29T06:16:36.286Z,22.65
2016-09-29T06:17:01.847Z,22.6
2016-09-29T06:17:27.507Z,22.65
2016-09-29T06:17:53.068Z,22.62
2016-09-29T06:18:18.644Z,22.59
2016-09-29T06:18:44.328Z,22.6
2016-09-29T06:19:09.877Z,22.64
2016-09-29T06:19:35.491Z,22.64
2016-09-29T06:20:01.099Z,22.56
2016-09-29T06:20:26.670Z,22.62
2016-09-29T06:20:52.231Z,22.65
2016-09-29T06:21:17.784Z,22.65
2016-09-29T06:21:43.341Z,22.6
2016-09-29T06:22:08.900Z,22.67
2016-09-29T06:22:34.454Z,22.68
2016-09-29T06:23:00.019Z,22.62
2016-09-29T06:23:25.569Z,22.64
2016-09-29T06:23:51.284Z,22.62
2016-09-29T06:24:16.861Z,22.59
2016-09-29T06:24:42.417Z,22.67
2016-09-29T06:25:08.001Z,22.62
2016-09-29T06:25:33.564Z,22.59
2016-09-29T06:25:59.148Z,22.6
2016-09-29T06:26:24.704Z,22.57
2016-09-29T06:26:50.271Z,22.64
2016-09-29T06:27:15.830Z,22.56
2016-09-29T06:27:41.399Z,22.53
2016-09-29T06:28:06.982Z,22.6
2016-09-29T06:28:32.548Z,22.54
2016-09-29T06:28:58.102Z,22.6
2016-09-29T06:29:23.657Z,22.67
2016-09-29T06:29:49.249Z,22.62
2016-09-29T06:30:14.898Z,22.64
2016-09-29T06:30:40.450Z,22.64
2016-09-29T06:31:06.007Z,22.6
2016-09-29T06:31:31.631Z,22.64
2016-09-29T06:31:57.201Z,22.53
2016-09-29T06:32:22.788Z,22.62
2016-09-29T06:32:48.351Z,22.62
2016-09-29T06:33:13.911Z,22.6
2016-09-29T06:33:39.484Z,22.67
2016-09-29T06:34:05.041Z,22.64
2016-09-29T06:34:30.619Z,22.64
2016-09-29T06:34:56.183Z,22.6
2016-09-29T06:35:21.787Z,22.64
2016-09-29T06:35:47.369Z,22.65
2016-09-29T06:36:12.901Z,22.57
2016-09-29T06:36:38.465Z,22.69
2016-09-29T06:37:04.065Z,22.62
2016-09-29T06:37:29.639Z,22.64
2016-09-29T06:37:55.224Z,22.69
2016-09-29T06:38:20.771Z,22.64
2016-09-29T06:38:46.352Z,22.72
2016-09-29T06:39:11.906Z,22.71
2016-09-29T06:39:37.472Z,22.65
2016-09-29T06:40:03.031Z,22.68
2016-09-29T06:40:28.621Z,22.67
2016-09-29T06:40:54.188Z,22.71
2016-09-29T06:41:19.756Z,22.65
2016-09-29T06:41:45.310Z,22.71
2016-09-29T06:42:10.925Z,22.65
2016-09-29T06:42:36.477Z,22.67
2016-09-29T06:43:02.035Z,22.53
2016-09-29T06:43:27.626Z,22.69
2016-09-29T06:43:53.163Z,22.65
2016-09-29T06:44:18.736Z,22.68
2016-09-29T06:44:44.311Z,22.65
2016-09-29T06:45:09.873Z,22.64
2016-09-29T06:45:35.441Z,22.74
2016-09-29T06:46:01.086Z,22.68
2016-09-29T06:46:26.640Z,22.72
2016-09-29T06:46:52.210Z,22.71
2016-09-29T06:48:00.627Z,22.69
2016-09-29T06:48:26.205Z,22.65
2016-09-29T06:48:51.767Z,22.72
2016-09-29T06:49:17.329Z,22.65
2016-09-29T06:49:42.883Z,22.77
2016-09-29T06:50:08.441Z,22.68
2016-09-29T06:50:33.997Z,22.78
2016-09-29T06:50:59.567Z,22.75
2016-09-29T06:52:07.842Z,22.75
2016-09-29T06:52:33.409Z,22.74
2016-09-29T06:52:59.007Z,22.68
2016-09-29T06:53:24.557Z,22.8
2016-09-29T06:53:50.121Z,22.74
2016-09-29T06:54:15.657Z,22.8
2016-09-29T06:54:41.452Z,22.77
2016-09-29T06:55:07.001Z,22.77
2016-09-29T06:55:32.582Z,22.71
2016-09-29T06:55:58.215Z,22.69
2016-09-29T06:56:23.798Z,22.74
2016-09-29T06:56:49.359Z,22.77
2016-09-29T06:57:15.070Z,22.77
2016-09-29T06:57:40.651Z,22.82
2016-09-29T06:58:06.216Z,22.78
2016-09-29T06:58:31.787Z,22.78
2016-09-29T06:58:57.352Z,22.78
2016-09-29T06:59:22.930Z,22.8
2016-09-29T06:59:48.535Z,22.82
2016-09-29T07:00:14.130Z,22.77
2016-09-29T07:00:39.683Z,22.74
2016-09-29T07:01:05.230Z,22.82
2016-09-29T07:01:30.801Z,22.78
2016-09-29T07:01:56.396Z,22.74
2016-09-29T07:02:22.031Z,22.77
2016-09-29T07:02:47.679Z,22.75
2016-09-29T07:03:13.237Z,22.78
2016-09-29T07:03:38.810Z,22.78
2016-09-29T07:04:04.440Z,22.77
2016-09-29T07:04:30.011Z,22.75
2016-09-29T07:04:55.571Z,22.77
2016-09-29T07:05:21.136Z,22.82
2016-09-29T07:05:46.704Z,22.8
2016-09-29T07:06:12.274Z,22.84
2016-09-29T07:06:37.860Z,22.78
2016-09-29T07:07:03.419Z,22.86
2016-09-29T07:07:29.011Z,22.8
2016-09-29T07:07:54.569Z,22.78
2016-09-29T07:08:20.134Z,22.83
2016-09-29T07:08:45.701Z,22.78
2016-09-29T07:09:11.401Z,22.87
2016-09-29T07:09:36.977Z,22.87
2016-09-29T07:10:02.537Z,22.87
2016-09-29T07:10:28.102Z,22.84
2016-09-29T07:10:53.711Z,22.87
2016-09-29T07:11:19.276Z,22.84
2016-09-29T07:11:44.877Z,22.9
2016-09-29T07:12:10.580Z,22.89
2016-09-29T07:13:03.857Z,22.84
2016-09-29T07:13:29.427Z,22.93
2016-09-29T07:13:55.174Z,22.87
2016-09-29T07:14:20.713Z,22.87
2016-09-29T07:15:08.542Z,22.9
2016-09-29T07:17:15.729Z,22.9
2016-09-29T07:17:42.165Z,22.93
2016-09-29T07:18:07.729Z,22.92
2016-09-29T07:18:33.302Z,22.9
2016-09-29T07:18:58.983Z,22.89
2016-09-29T07:19:24.533Z,22.94
2016-09-29T07:19:50.091Z,22.9
2016-09-29T07:20:15.650Z,22.92
2016-09-29T07:20:41.336Z,22.86
2016-09-29T07:21:06.898Z,22.93
2016-09-29T07:21:32.510Z,22.93
2016-09-29T07:21:58.191Z,22.94
2016-09-29T07:22:23.782Z,22.99
2016-09-29T07:22:49.383Z,22.92
2016-09-29T07:23:14.912Z,22.87
2016-09-29T07:23:40.571Z,22.99
2016-09-29T07:24:06.135Z,22.94
2016-09-29T07:24:31.720Z,22.93
2016-09-29T07:24:57.394Z,22.96
2016-09-29T07:25:22.961Z,22.96
2016-09-29T07:25:48.520Z,22.99
2016-09-29T07:26:14.119Z,22.93
2016-09-29T07:26:39.681Z,22.92
2016-09-29T07:27:05.432Z,22.99
2016-09-29T07:27:31.021Z,22.96
2016-09-29T07:27:56.563Z,22.94
2016-09-29T07:28:22.120Z,22.92
2016-09-29T07:28:47.700Z,22.99
2016-09-29T07:29:13.280Z,22.99
2016-09-29T07:29:38.818Z,22.93
2016-09-29T07:30:04.402Z,22.96
2016-09-29T07:30:30.002Z,22.97
2016-09-29T07:30:55.592Z,22.99
2016-09-29T07:31:21.137Z,22.99
2016-09-29T07:31:46.773Z,23.02
2016-09-29T07:32:12.326Z,22.99
2016-09-29T07:32:37.949Z,22.96
2016-09-29T07:33:03.613Z,22.97
2016-09-29T07:33:29.189Z,23.02
2016-09-29T07:33:54.839Z,22.96
2016-09-29T07:34:20.418Z,22.9
2016-09-29T07:34:46.004Z,22.92
2016-09-29T07:35:11.642Z,22.94
2016-09-29T07:35:37.179Z,22.97
2016-09-29T07:36:02.748Z,22.97
2016-09-29T07:36:28.302Z,23.07
2016-09-29T07:36:53.860Z,22.97
2016-09-29T07:37:19.421Z,22.96
2016-09-29T07:37:44.996Z,22.99
2016-09-29T07:38:10.599Z,22.97
2016-09-29T07:38:36.167Z,23.04
2016-09-29T07:39:01.715Z,23.09
2016-09-29T07:39:27.389Z,23.09
2016-09-29T07:39:52.958Z,22.99
2016-09-29T07:40:18.541Z,22.97
2016-09-29T07:40:44.184Z,22.99
2016-09-29T07:41:09.781Z,22.94
2016-09-29T07:41:35.333Z,22.93
2016-09-29T07:42:38.600Z,23.07
2016-09-29T07:43:04.186Z,22.94
2016-09-29T07:43:29.800Z,22.99
2016-09-29T07:43:55.353Z,23.05
2016-09-29T07:44:20.908Z,23.08
2016-09-29T07:44:46.495Z,22.99
2016-09-29T07:45:12.029Z,23.04
2016-09-29T07:45:37.564Z,23.09
2016-09-29T07:46:03.121Z,23.01
2016-09-29T07:46:28.666Z,23.02
2016-09-29T07:46:54.421Z,23.02
2016-09-29T07:47:19.865Z,23.04
2016-09-29T07:47:45.427Z,23.02
2016-09-29T07:48:10.991Z,23.04
2016-09-29T07:48:36.530Z,23.07
2016-09-29T07:49:02.110Z,23.04
2016-09-29T07:49:27.677Z,23.08
2016-09-29T07:49:53.259Z,23.01
2016-09-29T07:50:18.833Z,23.08
2016-09-29T07:50:44.469Z,23.07
2016-09-29T07:51:10.024Z,23.05
2016-09-29T07:51:35.590Z,23.08
2016-09-29T07:52:01.302Z,23.05
2016-09-29T07:52:26.880Z,23.07
2016-09-29T07:52:52.450Z,23.05
2016-09-29T07:53:18.010Z,23.07
2016-09-29T07:53:43.620Z,23.05
2016-09-29T07:54:09.188Z,23.07
2016-09-29T07:54:34.869Z,23.05
2016-09-29T07:55:00.408Z,23.08
2016-09-29T07:55:26.017Z,23.11
2016-09-29T07:55:51.563Z,23.08
2016-09-29T07:56:17.231Z,23.05
2016-09-29T07:56:42.777Z,23.11
2016-09-29T07:57:08.343Z,23.12
2016-09-29T07:57:33.918Z,23.02
2016-09-29T07:57:59.493Z,23.07
2016-09-29T07:58:25.046Z,23.05
2016-09-29T07:58:50.575Z,23.07
2016-09-29T07:59:16.130Z,23.02
2016-09-29T07:59:42.477Z,23.07
2016-09-29T08:00:08.017Z,23.05
2016-09-29T08:00:33.574Z,23.08
2016-09-29T08:00:59.214Z,23.07
2016-09-29T08:01:24.805Z,23.04
2016-09-29T08:01:50.357Z,23.04
2016-09-29T08:02:16.187Z,23.07
2016-09-29T08:02:41.754Z,23.07
2016-09-29T08:03:07.321Z,23.07
2016-09-29T08:03:32.881Z,23.11
2016-09-29T08:03:58.443Z,23.11
2016-09-29T08:04:24.040Z,23.07
2016-09-29T08:04:49.586Z,23.05
2016-09-29T08:05:15.181Z,23.08
2016-09-29T08:05:40.744Z,23.07
2016-09-29T08:06:06.312Z,23.05
2016-09-29T08:06:31.886Z,23.07
2016-09-29T08:06:57.432Z,23.08
2016-09-29T08:07:23.021Z,23.09
2016-09-29T08:07:48.598Z,23.09
2016-09-29T08:08:14.162Z,23.05
2016-09-29T08:08:39.734Z,23.12
2016-09-29T08:09:05.356Z,23.15
2016-09-29T08:09:30.934Z,23.09
2016-09-29T08:09:56.506Z,23.07
2016-09-29T08:10:22.061Z,23.11
2016-09-29T08:10:47.625Z,23.12
2016-09-29T08:11:13.208Z,23.05
2016-09-29T08:11:38.770Z,23.11
2016-09-29T08:12:04.340Z,23.12
2016-09-29T08:12:29.923Z,23.12
2016-09-29T08:12:55.614Z,23.12
2016-09-29T08:13:21.216Z,23.11
2016-09-29T08:13:46.863Z,23.08
2016-09-29T08:14:12.485Z,23.12
2016-09-29T08:15:10.580Z,23.14
2016-09-29T08:15:36.270Z,23.09
2016-09-29T08:16:01.858Z,23.19
2016-09-29T08:16:27.427Z,23.15
2016-09-29T08:16:52.983Z,23.14
2016-09-29T08:17:18.613Z,23.15
2016-09-29T08:17:44.171Z,23.15
2016-09-29T08:18:09.807Z,23.12
2016-09-29T08:18:35.380Z,23.12
2016-09-29T08:19:00.929Z,23.15
2016-09-29T08:19:26.474Z,23.15
2016-09-29T08:19:52.040Z,23.12
2016-09-29T08:20:17.565Z,23.22
2016-09-29T08:20:43.112Z,23.14
2016-09-29T08:21:08.735Z,23.15
2016-09-29T08:21:34.295Z,23.14
2016-09-29T08:21:59.986Z,23.11
2016-09-29T08:22:25.550Z,23.14
2016-09-29T08:22:51.107Z,23.17
2016-09-29T08:23:16.795Z,23.22
2016-09-29T08:23:42.369Z,23.14
2016-09-29T08:24:07.926Z,23.11
2016-09-29T08:24:33.469Z,23.05
2016-09-29T08:24:59.030Z,23.11
2016-09-29T08:25:24.580Z,23.15
2016-09-29T08:25:50.168Z,23.14
2016-09-29T08:26:15.722Z,23.14
2016-09-29T08:26:41.324Z,23.19
2016-09-29T08:27:06.964Z,23.11
2016-09-29T08:27:32.520Z,23.15
2016-09-29T08:27:58.093Z,23.17
2016-09-29T08:28:23.675Z,23.15
2016-09-29T08:28:49.240Z,23.17
2016-09-29T08:29:14.818Z,23.17
2016-09-29T08:29:40.398Z,23.14
2016-09-29T08:30:05.945Z,23.12
2016-09-29T08:30:31.514Z,23.2
2016-09-29T08:30:57.119Z,23.11
2016-09-29T08:31:22.732Z,23.2
2016-09-29T08:31:48.294Z,23.11
2016-09-29T08:32:13.875Z,23.22
2016-09-29T08:32:39.444Z,23.19
2016-09-29T08:33:43.013Z,23.14
2016-09-29T08:34:08.587Z,23.19
2016-09-29T08:34:34.165Z,23.11
2016-09-29T08:34:59.749Z,23.15
2016-09-29T08:35:25.407Z,23.19
2016-09-29T08:35:50.946Z,23.2
2016-09-29T08:36:16.524Z,23.11
2016-09-29T08:36:42.164Z,23.2
2016-09-29T08:37:07.741Z,23.2
2016-09-29T08:37:33.321Z,23.19
2016-09-29T08:37:58.888Z,23.14
2016-09-29T08:38:24.449Z,23.15
2016-09-29T08:38:50.024Z,23.22
2016-09-29T08:39:15.570Z,23.19
2016-09-29T08:39:41.341Z,23.17
2016-09-29T08:40:06.985Z,23.26
2016-09-29T08:40:32.550Z,23.22
2016-09-29T08:40:58.131Z,23.15
2016-09-29T08:41:23.697Z,23.15
2016-09-29T08:41:49.263Z,23.26
2016-09-29T08:42:14.949Z,23.2
2016-09-29T08:42:40.525Z,23.2
2016-09-29T08:43:06.091Z,23.24
2016-09-29T08:43:31.651Z,23.2
2016-09-29T08:43:57.207Z,23.24
2016-09-29T08:44:22.769Z,23.23
2016-09-29T08:45:11.422Z,23.17
2016-09-29T08:48:03.780Z,23.24
2016-09-29T08:48:29.337Z,23.29
2016-09-29T08:48:54.918Z,23.26
2016-09-29T08:49:20.486Z,23.23
2016-09-29T08:49:46.050Z,23.23
2016-09-29T08:50:11.613Z,23.31
2016-09-29T08:50:37.231Z,23.23
2016-09-29T08:51:02.799Z,23.29
2016-09-29T08:51:28.371Z,23.26